createdAt,value
2022-10-09T00:01:11.148Z,65.82
2022-10-09T00:03:41.268Z,65.79
2022-10-09T00:06:12.434Z,65.89
2022-10-09T00:08:40.953Z,65.65
2022-10-09T00:11:10.301Z,66.04
2022-10-09T00:13:38.611Z,66.02
2022-10-09T00:16:08.254Z,66.27
2022-10-09T00:18:37.156Z,66.19
2022-10-09T00:21:05.485Z,66.32
2022-10-09T00:23:34.484Z,66.86
2022-10-09T00:26:03.326Z,66.83
2022-10-09T00:28:36.498Z,67.00
2022-10-09T00:31:06.479Z,67.04
2022-10-09T00:33:34.337Z,67.13
2022-10-09T00:36:04.117Z,66.71
2022-10-09T00:38:31.859Z,66.92
2022-10-09T00:41:01.059Z,67.02
2022-10-09T00:43:41.938Z,67.10
2022-10-09T00:46:19.962Z,66.70
2022-10-09T00:48:52.551Z,66.78
2022-10-09T00:51:20.497Z,66.88
2022-10-09T00:53:48.236Z,66.68
2022-10-09T00:56:17.404Z,66.25
2022-10-09T00:58:45.420Z,66.23
2022-10-09T01:01:13.202Z,65.88
2022-10-09T01:03:42.242Z,66.13
2022-10-09T01:06:18.344Z,66.78
2022-10-09T01:08:51.717Z,66.93
2022-10-09T01:11:35.485Z,66.49
2022-10-09T01:14:11.274Z,67.15
2022-10-09T01:16:45.776Z,67.31
2022-10-09T01:19:23.702Z,67.32
2022-10-09T01:22:03.198Z,66.88
2022-10-09T01:24:37.846Z,67.27
2022-10-09T01:27:16.276Z,67.01
2022-10-09T01:29:47.289Z,66.98
2022-10-09T01:32:19.762Z,66.99
2022-10-09T01:34:48.931Z,67.08
2022-10-09T01:37:18.763Z,66.82
2022-10-09T01:39:47.737Z,66.54
2022-10-09T01:42:17.682Z,66.30
2022-10-09T01:44:45.399Z,66.27
2022-10-09T01:47:16.743Z,65.80
2022-10-09T01:49:52.509Z,65.69
2022-10-09T01:52:34.939Z,65.81
2022-10-09T01:55:19.402Z,65.94
2022-10-09T01:57:53.465Z,66.12
2022-10-09T02:00:22.129Z,65.94
2022-10-09T02:02:51.442Z,66.03
2022-10-09T02:05:22.405Z,66.31
2022-10-09T02:07:50.248Z,66.17
2022-10-09T02:10:19.463Z,66.08
2022-10-09T02:12:54.162Z,65.50
2022-10-09T02:15:24.840Z,65.16
2022-10-09T02:17:55.467Z,65.21
2022-10-09T02:20:28.818Z,65.43
2022-10-09T02:22:59.043Z,65.75
2022-10-09T02:25:26.886Z,65.88
2022-10-09T02:27:56.618Z,66.01
2022-10-09T02:30:28.117Z,66.09
2022-10-09T02:32:55.799Z,65.99
2022-10-09T02:35:23.501Z,66.14
2022-10-09T02:37:51.147Z,66.14
2022-10-09T02:40:18.734Z,66.47
2022-10-09T02:42:46.569Z,66.58
2022-10-09T02:45:15.919Z,66.72
2022-10-09T02:47:43.516Z,66.96
2022-10-09T02:50:11.264Z,66.55
2022-10-09T02:52:38.885Z,66.45
2022-10-09T02:55:06.909Z,66.87
2022-10-09T02:57:34.454Z,66.71
2022-10-09T03:00:02.041Z,66.76
2022-10-09T03:02:31.065Z,66.51
2022-10-09T03:04:59.018Z,66.69
2022-10-09T03:07:26.847Z,66.78
2022-10-09T03:09:54.784Z,66.73
2022-10-09T03:12:22.371Z,66.56
2022-10-09T03:14:49.963Z,66.61
2022-10-09T03:17:17.554Z,67.04
2022-10-09T03:19:46.540Z,67.42
2022-10-09T03:22:14.164Z,67.24
2022-10-09T03:24:41.815Z,67.12
2022-10-09T03:27:09.555Z,67.48
2022-10-09T03:29:37.183Z,67.66
2022-10-09T03:32:04.927Z,67.53
2022-10-09T03:34:32.508Z,67.89
2022-10-09T03:37:01.516Z,67.56
2022-10-09T03:39:29.136Z,67.94
2022-10-09T03:41:56.813Z,67.81
2022-10-09T03:44:24.553Z,67.64
2022-10-09T03:46:52.617Z,67.70
2022-10-09T03:49:20.334Z,67.87
2022-10-09T03:51:47.950Z,67.80
2022-10-09T03:54:16.848Z,67.83
2022-10-09T03:56:44.402Z,67.83
2022-10-09T03:59:12.241Z,68.21
2022-10-09T04:01:40.738Z,68.43
2022-10-09T04:04:08.279Z,68.81
2022-10-09T04:06:35.915Z,68.51
2022-10-09T04:09:03.599Z,68.15
2022-10-09T04:11:32.517Z,67.97
2022-10-09T04:14:00.699Z,68.18
2022-10-09T04:16:28.518Z,68.31
2022-10-09T04:18:56.286Z,68.99
2022-10-09T04:21:23.952Z,69.28
2022-10-09T04:23:52.270Z,69.40
2022-10-09T04:26:19.914Z,68.75
2022-10-09T04:28:48.967Z,69.06
2022-10-09T04:31:16.669Z,69.23
2022-10-09T04:33:44.249Z,68.98
2022-10-09T04:36:12.423Z,69.20
2022-10-09T04:38:40.043Z,69.14
2022-10-09T04:41:08.601Z,69.13
2022-10-09T04:43:36.760Z,69.30
2022-10-09T04:46:11.405Z,69.47
2022-10-09T04:48:39.962Z,70.28
2022-10-09T04:51:08.573Z,70.25
2022-10-09T04:53:37.461Z,69.71
2022-10-09T04:56:07.499Z,70.21
2022-10-09T04:58:36.415Z,69.99
2022-10-09T05:01:08.650Z,70.19
2022-10-09T05:03:36.422Z,70.17
2022-10-09T05:06:05.468Z,70.57
2022-10-09T05:08:33.657Z,70.50
2022-10-09T05:11:01.821Z,70.37
2022-10-09T05:13:30.911Z,70.70
2022-10-09T05:16:02.796Z,70.72
2022-10-09T05:18:31.969Z,70.79
2022-10-09T05:20:59.564Z,70.30
2022-10-09T05:23:27.163Z,70.35
2022-10-09T05:25:56.106Z,70.69
2022-10-09T05:28:23.958Z,71.15
2022-10-09T05:30:52.153Z,70.79
2022-10-09T05:33:19.885Z,70.75
2022-10-09T05:35:56.156Z,70.15
2022-10-09T05:38:25.295Z,70.57
2022-10-09T05:40:53.702Z,70.89
2022-10-09T05:43:21.696Z,71.06
2022-10-09T05:45:49.355Z,71.36
2022-10-09T05:48:17.115Z,71.29
2022-10-09T05:50:44.878Z,71.38
2022-10-09T05:53:14.087Z,71.40
2022-10-09T05:55:41.782Z,71.51
2022-10-09T05:58:09.397Z,71.70
2022-10-09T06:00:36.964Z,71.53
2022-10-09T06:03:04.902Z,71.22
2022-10-09T06:05:32.502Z,71.28
2022-10-09T06:08:00.083Z,71.15
2022-10-09T06:10:32.255Z,70.95
2022-10-09T06:13:00.292Z,70.83
2022-10-09T06:15:28.074Z,70.68
2022-10-09T06:17:55.752Z,71.62
2022-10-09T06:20:23.409Z,71.33
2022-10-09T06:22:52.056Z,71.11
2022-10-09T06:25:19.642Z,71.22
2022-10-09T06:27:48.575Z,71.41
2022-10-09T06:30:16.197Z,70.75
2022-10-09T06:32:43.813Z,70.78
2022-10-09T06:35:11.443Z,70.55
2022-10-09T06:37:39.009Z,70.40
2022-10-09T06:40:07.257Z,70.13
2022-10-09T06:42:34.895Z,69.84
2022-10-09T06:45:03.939Z,69.89
2022-10-09T06:47:31.529Z,69.93
2022-10-09T06:49:59.118Z,69.94
2022-10-09T06:52:26.656Z,69.48
2022-10-09T06:54:54.240Z,69.55
2022-10-09T06:57:21.948Z,70.05
2022-10-09T06:59:50.109Z,70.44
2022-10-09T07:02:19.232Z,70.34
2022-10-09T07:04:48.141Z,70.04
2022-10-09T07:07:15.730Z,70.97
2022-10-09T07:09:43.335Z,71.18
2022-10-09T07:12:10.955Z,71.11
2022-10-09T07:14:38.569Z,71.35
2022-10-09T07:17:06.738Z,72.02
2022-10-09T07:19:35.746Z,71.79
2022-10-09T07:22:03.323Z,72.21
2022-10-09T07:24:30.876Z,72.07
2022-10-09T07:26:58.491Z,71.71
2022-10-09T07:29:26.063Z,71.62
2022-10-09T07:31:53.653Z,71.21
2022-10-09T07:34:21.293Z,70.86
2022-10-09T07:36:50.287Z,70.74
2022-10-09T07:39:19.497Z,69.83
2022-10-09T07:41:47.723Z,69.23
2022-10-09T07:44:15.395Z,69.06
2022-10-09T07:46:43.017Z,68.62
2022-10-09T07:49:10.752Z,68.74
2022-10-09T07:51:38.427Z,68.57
2022-10-09T07:54:07.404Z,68.55
2022-10-09T07:56:37.863Z,68.48
2022-10-09T07:59:07.583Z,67.96
2022-10-09T08:01:36.519Z,68.28
2022-10-09T08:04:05.192Z,68.15
2022-10-09T08:06:33.461Z,68.12
2022-10-09T08:09:02.720Z,67.97
2022-10-09T08:11:31.859Z,68.09
2022-10-09T08:14:00.215Z,68.07
2022-10-09T08:16:28.897Z,68.01
2022-10-09T08:18:58.710Z,67.85
2022-10-09T08:21:27.918Z,67.25
2022-10-09T08:23:57.351Z,66.98
2022-10-09T08:26:25.965Z,66.94
2022-10-09T08:28:57.310Z,66.65
2022-10-09T08:31:25.806Z,66.46
2022-10-09T08:33:54.683Z,66.83
2022-10-09T08:36:22.924Z,66.21
2022-10-09T08:38:51.133Z,65.29
2022-10-09T08:41:28.544Z,64.82
2022-10-09T08:44:03.576Z,64.13
2022-10-09T08:46:35.972Z,63.85
2022-10-09T08:49:06.171Z,60.86
2022-10-09T08:51:39.051Z,55.60
2022-10-09T08:54:17.553Z,45.50
2022-10-09T08:56:45.883Z,42.65
2022-10-09T08:59:15.013Z,40.04
2022-10-09T09:01:49.308Z,35.89
2022-10-09T09:04:32.832Z,34.82
2022-10-09T09:07:12.326Z,37.57
2022-10-09T09:09:53.108Z,40.01
2022-10-09T09:12:28.340Z,42.78
2022-10-09T09:15:14.160Z,44.87
2022-10-09T09:17:47.538Z,46.99
2022-10-09T09:20:23.258Z,48.34
2022-10-09T09:22:51.959Z,49.62
2022-10-09T09:25:22.889Z,50.14
2022-10-09T09:27:52.694Z,51.03
2022-10-09T09:30:25.626Z,51.62
2022-10-09T09:33:01.795Z,52.32
2022-10-09T09:35:37.078Z,51.69
2022-10-09T09:38:04.824Z,51.76
2022-10-09T09:40:37.753Z,50.94
2022-10-09T09:43:14.716Z,49.59
2022-10-09T09:45:44.809Z,48.48
2022-10-09T09:48:17.129Z,48.41
2022-10-09T09:50:53.084Z,49.02
2022-10-09T09:53:36.134Z,50.22
2022-10-09T09:56:04.207Z,51.49
2022-10-09T09:58:36.329Z,52.68
2022-10-09T10:01:07.870Z,53.23
2022-10-09T10:03:36.952Z,53.43
2022-10-09T10:06:05.388Z,53.69
2022-10-09T10:08:35.196Z,54.03
2022-10-09T10:11:06.416Z,54.94
2022-10-09T10:13:37.985Z,54.80
2022-10-09T10:16:08.976Z,55.01
2022-10-09T10:18:41.529Z,55.59
2022-10-09T10:21:13.555Z,55.85
2022-10-09T10:23:45.521Z,56.02
2022-10-09T10:26:23.608Z,54.68
2022-10-09T10:28:55.733Z,54.00
2022-10-09T10:31:36.552Z,54.16
2022-10-09T10:34:09.909Z,51.98
2022-10-09T10:36:37.580Z,50.02
2022-10-09T10:39:13.876Z,48.70
2022-10-09T10:41:46.376Z,49.09
2022-10-09T10:44:22.834Z,50.60
2022-10-09T10:46:56.369Z,50.13
2022-10-09T10:49:24.396Z,50.63
2022-10-09T10:52:04.548Z,51.55
2022-10-09T10:54:38.712Z,51.69
2022-10-09T10:57:15.787Z,50.50
2022-10-09T10:59:53.370Z,50.63
2022-10-09T11:02:54.497Z,51.51
2022-10-09T11:05:47.653Z,51.38
2022-10-09T11:08:34.564Z,45.62
2022-10-09T11:11:07.610Z,43.88
2022-10-09T11:13:45.935Z,37.89
2022-10-09T11:16:29.917Z,31.43
2022-10-09T11:19:14.495Z,28.05
2022-10-09T11:21:52.948Z,26.06
2022-10-09T11:24:37.862Z,24.87
2022-10-09T11:27:14.586Z,25.12
2022-10-09T11:29:47.493Z,26.23
2022-10-09T11:32:20.869Z,27.81
2022-10-09T11:34:56.719Z,29.90
2022-10-09T11:37:28.485Z,30.57
2022-10-09T11:39:57.435Z,29.83
2022-10-09T11:42:27.208Z,29.51
2022-10-09T11:45:07.527Z,29.14
2022-10-09T11:47:46.095Z,28.52
2022-10-09T11:50:27.911Z,29.23
2022-10-09T11:53:00.848Z,29.89
2022-10-09T11:55:31.273Z,29.74
2022-10-09T11:58:14.908Z,31.13
2022-10-09T12:00:43.894Z,32.06
2022-10-09T12:03:26.370Z,32.27
2022-10-09T12:06:04.374Z,33.14
2022-10-09T12:08:32.311Z,32.49
2022-10-09T12:11:10.520Z,31.91
2022-10-09T12:13:46.039Z,31.47
2022-10-09T12:16:46.478Z,31.36
2022-10-09T12:19:23.345Z,31.81
2022-10-09T12:21:59.625Z,30.66
2022-10-09T12:24:30.460Z,29.27
2022-10-09T12:27:03.138Z,29.33
2022-10-09T12:29:34.731Z,29.76
2022-10-09T12:32:07.528Z,29.60
2022-10-09T12:34:38.941Z,29.17
2022-10-09T12:37:17.450Z,29.22
2022-10-09T12:39:46.366Z,30.56
2022-10-09T12:42:20.016Z,31.05
2022-10-09T12:44:49.607Z,31.77
2022-10-09T12:47:21.811Z,32.41
2022-10-09T12:49:57.921Z,31.62
2022-10-09T12:52:27.935Z,31.56
2022-10-09T12:54:55.952Z,31.92
2022-10-09T12:57:27.726Z,32.70
2022-10-09T12:59:56.542Z,32.60
2022-10-09T13:02:24.434Z,32.97
2022-10-09T13:04:57.974Z,32.08
2022-10-09T13:07:29.731Z,33.22
2022-10-09T13:10:03.700Z,33.53
2022-10-09T13:12:32.433Z,34.42
2022-10-09T13:15:01.681Z,34.88
2022-10-09T13:20:21.523Z,34.74
2022-10-09T13:22:56.545Z,35.21
2022-10-09T13:25:24.777Z,35.37
2022-10-09T13:27:52.625Z,34.83
2022-10-09T13:30:22.303Z,34.88
2022-10-09T13:32:50.087Z,34.97
2022-10-09T13:35:18.152Z,35.89
2022-10-09T13:37:45.826Z,35.37
2022-10-09T13:40:20.417Z,35.34
2022-10-09T13:42:53.808Z,36.14
2022-10-09T13:45:22.194Z,36.18
2022-10-09T13:47:50.154Z,36.89
2022-10-09T13:50:19.677Z,37.15
2022-10-09T13:52:47.352Z,37.22
2022-10-09T13:55:17.131Z,37.54
2022-10-09T13:57:44.836Z,38.34
2022-10-09T14:00:13.575Z,37.88
2022-10-09T14:02:41.237Z,38.24
2022-10-09T14:05:09.052Z,38.99
2022-10-09T14:07:36.683Z,38.42
2022-10-09T14:10:04.849Z,38.85
2022-10-09T14:12:33.864Z,39.32
2022-10-09T14:15:01.523Z,38.75
2022-10-09T14:17:29.213Z,38.67
2022-10-09T14:19:57.018Z,38.51
2022-10-09T14:22:24.605Z,38.65
2022-10-09T14:24:52.243Z,39.05
2022-10-09T14:27:19.862Z,39.12
2022-10-09T14:29:49.314Z,38.91
2022-10-09T14:32:18.750Z,38.49
2022-10-09T14:34:46.530Z,39.30
2022-10-09T14:37:29.889Z,39.67
2022-10-09T14:40:02.129Z,39.61
2022-10-09T14:42:29.836Z,39.75
2022-10-09T14:44:58.861Z,39.77
2022-10-09T14:47:26.570Z,39.89
2022-10-09T14:49:54.233Z,40.54
2022-10-09T14:52:21.865Z,40.27
2022-10-09T14:54:49.524Z,40.66
2022-10-09T14:57:17.947Z,40.62
2022-10-09T14:59:45.596Z,41.01
2022-10-09T15:02:15.949Z,41.01
2022-10-09T15:04:43.928Z,41.84
2022-10-09T15:07:11.613Z,41.65
2022-10-09T15:09:39.243Z,42.07
2022-10-09T15:12:07.033Z,42.07
2022-10-09T15:14:34.709Z,41.77
2022-10-09T15:17:02.880Z,42.13
2022-10-09T15:19:32.019Z,42.39
2022-10-09T15:21:59.755Z,42.36
2022-10-09T15:24:27.880Z,42.24
2022-10-09T15:26:55.545Z,42.92
2022-10-09T15:29:23.372Z,42.61
2022-10-09T15:31:51.903Z,42.90
2022-10-09T15:34:20.944Z,43.38
2022-10-09T15:36:50.949Z,43.94
2022-10-09T15:39:18.711Z,43.65
2022-10-09T15:41:47.696Z,43.22
2022-10-09T15:44:17.469Z,43.53
2022-10-09T15:46:46.304Z,43.48
2022-10-09T15:49:14.041Z,43.91
2022-10-09T15:51:41.748Z,43.51
2022-10-09T15:54:12.993Z,44.20
2022-10-09T15:56:41.393Z,44.65
2022-10-09T15:59:11.830Z,45.39
2022-10-09T16:01:39.571Z,45.90
2022-10-09T16:04:07.295Z,46.24
2022-10-09T16:06:35.078Z,46.75
2022-10-09T16:09:04.060Z,47.12
2022-10-09T16:11:34.539Z,47.09
2022-10-09T16:14:02.303Z,47.72
2022-10-09T16:16:29.983Z,47.97
2022-10-09T16:18:57.755Z,48.29
2022-10-09T16:21:27.940Z,48.75
2022-10-09T16:23:59.141Z,48.68
2022-10-09T16:26:29.200Z,49.13
2022-10-09T16:28:59.999Z,49.44
2022-10-09T16:31:30.140Z,49.54
2022-10-09T16:33:58.112Z,49.70
2022-10-09T16:36:25.788Z,50.37
2022-10-09T16:38:53.467Z,50.25
2022-10-09T16:41:22.718Z,50.85
2022-10-09T16:43:52.194Z,50.92
2022-10-09T16:46:23.528Z,51.29
2022-10-09T16:48:52.523Z,51.44
2022-10-09T16:51:22.815Z,50.97
2022-10-09T16:53:51.278Z,51.21
2022-10-09T16:56:20.905Z,51.48
2022-10-09T16:58:48.541Z,51.88
2022-10-09T17:01:17.427Z,51.47
2022-10-09T17:03:46.851Z,52.28
2022-10-09T17:06:19.413Z,52.82
2022-10-09T17:08:47.386Z,53.01
2022-10-09T17:11:17.261Z,53.35
2022-10-09T17:13:45.942Z,53.74
2022-10-09T17:16:18.453Z,53.14
2022-10-09T17:18:47.983Z,53.42
2022-10-09T17:21:17.198Z,53.68
2022-10-09T17:23:45.437Z,54.09
2022-10-09T17:26:15.177Z,54.50
2022-10-09T17:28:43.313Z,54.75
2022-10-09T17:31:14.460Z,54.68
2022-10-09T17:33:46.274Z,54.45
2022-10-09T17:36:17.456Z,54.28
2022-10-09T17:38:45.231Z,54.76
2022-10-09T17:41:14.796Z,54.22
2022-10-09T17:43:42.489Z,54.07
2022-10-09T17:46:10.109Z,53.86
2022-10-09T17:48:44.005Z,54.52
2022-10-09T17:51:17.032Z,54.39
2022-10-09T17:53:45.137Z,53.95
2022-10-09T17:56:13.454Z,53.86
2022-10-09T17:58:42.105Z,53.80
2022-10-09T18:01:10.652Z,53.79
2022-10-09T18:03:38.628Z,54.26
2022-10-09T18:06:08.021Z,54.85
2022-10-09T18:08:37.657Z,55.22
2022-10-09T18:11:08.663Z,55.57
2022-10-09T18:13:37.809Z,55.78
2022-10-09T18:16:07.157Z,56.10
2022-10-09T18:18:35.371Z,56.62
2022-10-09T18:21:05.097Z,56.15
2022-10-09T18:23:32.967Z,56.26
2022-10-09T18:26:07.203Z,56.68
2022-10-09T18:28:35.193Z,57.05
2022-10-09T18:31:06.105Z,56.86
2022-10-09T18:33:33.964Z,56.76
2022-10-09T18:36:07.085Z,57.39
2022-10-09T18:38:35.074Z,57.54
2022-10-09T18:41:04.358Z,58.31
2022-10-09T18:43:31.945Z,57.88
2022-10-09T18:46:00.725Z,57.81
2022-10-09T18:48:30.485Z,58.08
2022-10-09T18:50:58.543Z,58.63
2022-10-09T18:53:26.311Z,58.82
2022-10-09T18:55:54.252Z,58.78
2022-10-09T18:58:23.854Z,58.92
2022-10-09T19:00:51.578Z,58.91
2022-10-09T19:03:19.224Z,59.03
2022-10-09T19:05:46.887Z,59.29
2022-10-09T19:08:14.515Z,59.90
2022-10-09T19:10:42.222Z,60.08
2022-10-09T19:13:09.765Z,59.95
2022-10-09T19:15:38.794Z,60.10
2022-10-09T19:18:06.902Z,59.90
2022-10-09T19:20:34.551Z,60.03
2022-10-09T19:23:02.204Z,60.13
2022-10-09T19:25:29.800Z,59.59
2022-10-09T19:27:57.462Z,59.88
2022-10-09T19:30:25.094Z,59.35
2022-10-09T19:32:54.049Z,59.86
2022-10-09T19:35:21.644Z,59.48
2022-10-09T19:37:49.503Z,59.28
2022-10-09T19:40:17.460Z,59.19
2022-10-09T19:42:45.038Z,59.49
2022-10-09T19:45:12.718Z,60.18
2022-10-09T19:47:40.354Z,59.67
2022-10-09T19:50:10.027Z,59.98
2022-10-09T19:52:37.687Z,59.69
2022-10-09T19:55:05.964Z,59.53
2022-10-09T19:57:33.674Z,59.75
2022-10-09T20:00:01.272Z,59.70
2022-10-09T20:02:28.912Z,59.62
2022-10-09T20:04:56.555Z,59.60
2022-10-09T20:07:25.631Z,60.24
2022-10-09T20:09:53.276Z,60.24
2022-10-09T20:12:21.042Z,60.10
2022-10-09T20:14:48.687Z,59.54
2022-10-09T20:17:17.135Z,59.80
2022-10-09T20:19:45.876Z,60.46
2022-10-09T20:22:13.681Z,61.06
2022-10-09T20:24:42.728Z,60.66
2022-10-09T20:27:10.322Z,60.80
2022-10-09T20:29:38.149Z,61.23
2022-10-09T20:32:05.822Z,61.68
2022-10-09T20:34:33.440Z,61.52
2022-10-09T20:37:01.199Z,61.64
2022-10-09T20:39:28.788Z,61.85
2022-10-09T20:41:58.400Z,61.77
2022-10-09T20:44:25.950Z,62.02
2022-10-09T20:46:56.638Z,62.86
2022-10-09T20:49:24.373Z,63.06
2022-10-09T20:51:52.791Z,62.67
2022-10-09T20:54:21.979Z,62.47
2022-10-09T20:56:50.439Z,62.21
2022-10-09T20:59:19.797Z,62.71
2022-10-09T21:01:47.605Z,63.21
2022-10-09T21:04:15.263Z,63.08
2022-10-09T21:06:43.002Z,62.90
2022-10-09T21:09:10.790Z,63.31
2022-10-09T21:11:40.218Z,63.59
2022-10-09T21:14:08.093Z,64.31
2022-10-09T21:16:37.268Z,63.82
2022-10-09T21:19:06.154Z,64.02
2022-10-09T21:21:34.859Z,64.16
2022-10-09T21:24:03.319Z,64.32
2022-10-09T21:26:35.477Z,64.33
2022-10-09T21:29:04.048Z,63.89
2022-10-09T21:31:33.569Z,64.33
2022-10-09T21:34:03.010Z,64.25
2022-10-09T21:36:51.212Z,64.38
2022-10-09T21:39:27.431Z,64.16
2022-10-09T21:41:56.018Z,63.96
2022-10-09T21:44:23.655Z,64.07
2022-10-09T21:46:51.319Z,64.84
2022-10-09T21:49:22.547Z,64.88
2022-10-09T21:51:50.384Z,65.14
2022-10-09T21:54:18.498Z,65.17
2022-10-09T21:56:46.127Z,64.76
2022-10-09T21:59:14.144Z,64.08
2022-10-09T22:01:41.750Z,64.06
2022-10-09T22:04:09.386Z,64.12
2022-10-09T22:06:38.330Z,64.84
2022-10-09T22:09:05.917Z,64.76
2022-10-09T22:11:33.500Z,64.82
2022-10-09T22:14:01.090Z,64.88
2022-10-09T22:16:28.688Z,64.82
2022-10-09T22:18:56.278Z,64.95
2022-10-09T22:21:23.949Z,65.09
2022-10-09T22:23:52.958Z,65.15
2022-10-09T22:26:22.750Z,65.10
2022-10-09T22:28:50.643Z,65.22
2022-10-09T22:31:20.557Z,65.44
2022-10-09T22:33:50.876Z,66.11
2022-10-09T22:36:20.056Z,65.91
2022-10-09T22:38:48.044Z,65.93
2022-10-09T22:41:18.370Z,65.95
2022-10-09T22:43:48.629Z,66.04
2022-10-09T22:46:19.260Z,65.23
2022-10-09T22:48:46.910Z,65.02
2022-10-09T22:51:16.837Z,65.59
2022-10-09T22:53:47.229Z,65.84
2022-10-09T22:56:18.887Z,65.98
2022-10-09T22:58:47.623Z,65.76
2022-10-09T23:01:17.434Z,65.54
2022-10-09T23:03:45.098Z,65.83
2022-10-09T23:06:15.603Z,65.76
2022-10-09T23:08:45.202Z,65.70
2022-10-09T23:11:13.883Z,66.14
2022-10-09T23:13:42.941Z,66.25
2022-10-09T23:16:13.091Z,66.47
2022-10-09T23:18:42.079Z,66.28
2022-10-09T23:21:12.654Z,66.13
2022-10-09T23:23:40.359Z,66.08
2022-10-09T23:26:10.003Z,66.34
2022-10-09T23:28:37.891Z,66.50
2022-10-09T23:31:08.873Z,66.49
2022-10-09T23:33:38.438Z,66.41
2022-10-09T23:36:07.734Z,66.04
2022-10-09T23:38:35.828Z,66.08
2022-10-09T23:41:05.605Z,66.17
2022-10-09T23:43:34.795Z,66.25
2022-10-09T23:46:04.499Z,66.56
2022-10-09T23:48:34.063Z,66.95
2022-10-09T23:51:01.707Z,66.82
2022-10-09T23:53:29.645Z,66.72
2022-10-09T23:55:57.208Z,66.87
2022-10-09T23:58:25.293Z,66.59
